الصفحة الرئيسية
METAR-TAF:

METAR-TAF

مطار :

سانت فرنسيس, كانساس, الولايات المتحدة

دائرة عرض: 39-45-40N, خط طول: 101-47-45W, ارتفاع: 1040 متر

مراقبة الطقس الحالي

تاريخ ووقت الإصدار 12 دقيقة قبل الساعة 18:55UTC
ريح 10 عقدة من الشمال/الشمال الشرقي
درجة الحرارة 24°درجة مئوية
الرطوبة 54%
ضغط 1017 hPa
الرؤية: 16.1 كم
غيوم مفككة على ارتفاع 4300 قدم
غيوم مفككة على ارتفاع 5000 قدم
ملبد بالغيوم على ارتفاع 6000 قدم

METAR: KSYF 141855Z AUTO 03010KT 10SM BKN043 BKN050 OVC060 24/14 A3004 RMK AO2 T02430143

زمن: 14:07 (19:07 UTC)


TAF: مفقودة

أرصاد الطقس والتوقعات من أكثر من 4000 مطار (تقارير الطقس للمطار METAR والتنبؤ بالطقس بالمطارTAF).

المحطات المتاحة هي النقط الصفراء والحمراء على الخريطة.

حرك المؤشر فوق النقطة لمعرفة اسم المحطة.

ثم انقر لمعرفة أرصاد وتوقعات الطقس.

لتغيير الخارطة: اضغط على الأزرار الخضراء مع رمز الصليب الأسود للتكبير. على الزر الأخضر مع شرطة للتصغير، أو على الأسهم الخضراء للخرائط المجاورة.


METAR-TAF: